Time;durP1;ratioP1;P1;durP2;ratioP2;P2;SDS_P1;SDS_P2;PMS_P1;PMS_P2;Temp;Humidity;BMP_temperature;BMP_pressure;BME280_temperature;BME280_humidity;BME280_pressure;Samples;Min_cycle;Max_cycle;Signal;HPM_P1;HPM_P2
2021/12/17 00:00:46;;;;;;;84.32;18.17;;;;;;;;;;4836547;29;20065;-85
2021/12/17 00:03:33;;;;;;;82.85;17.48;;;;;;;;;;4835614;29;20088;-85
2021/12/17 00:08:47;;;;;;;84.53;16.75;;;;;;;;;;4856549;29;20040;-86
2021/12/17 00:11:14;;;;;;;;;;;;;;;;;;4849139;29;20614;-86
2021/12/17 00:13:42;;;;;;;64.55;15.25;;;;;;;;;;4842863;29;19915;-85
2021/12/17 00:16:22;;;;;;;71.80;14.90;;;;;;;;;;4837164;29;20116;-85
2021/12/17 00:18:59;;;;;;;67.15;16.20;;;;;;;;;;4853178;29;20034;-86
2021/12/17 00:48:49;;;;;;;56.27;10.73;;;;;;;;;;4872214;29;20056;-86
2021/12/17 00:54:30;;;;;;;56.65;11.07;;;;;;;;;;4830442;29;20030;-84
2021/12/17 00:56:57;;;;;;;49.27;11.47;;;;;;;;;;4848091;29;20040;-85
2021/12/17 00:59:23;;;;;;;55.60;11.13;;;;;;;;;;4854710;29;20382;-85
2021/12/17 01:01:50;;;;;;;47.38;11.40;;;;;;;;;;4848843;29;20121;-86
2021/12/17 01:04:16;;;;;;;46.58;10.30;;;;;;;;;;4869295;29;20041;-85
2021/12/17 01:06:43;;;;;;;40.53;10.05;;;;;;;;;;4869420;29;20386;-86
2021/12/17 01:09:09;;;;;;;37.45;9.82;;;;;;;;;;4851695;29;20068;-86
2021/12/17 01:11:36;;;;;;;23.73;6.32;;;;;;;;;;4854089;29;20112;-85
2021/12/17 01:14:03;;;;;;;24.83;6.78;;;;;;;;;;4850445;29;20055;-86
2021/12/17 01:16:29;;;;;;;23.30;5.78;;;;;;;;;;4855282;29;20564;-86
2021/12/17 01:21:54;;;;;;;20.45;4.90;;;;;;;;;;4868027;29;20063;-85
2021/12/17 01:43:04;;;;;;;18.52;5.95;;;;;;;;;;4868308;29;20055;-86
2021/12/17 01:45:35;;;;;;;19.55;5.80;;;;;;;;;;4856214;29;20066;-85
2021/12/17 01:48:03;;;;;;;19.00;5.47;;;;;;;;;;4853473;29;20052;-85
2021/12/17 01:56:16;;;;;;;20.88;5.47;;;;;;;;;;4871617;29;20044;-86
2021/12/17 02:01:27;;;;;;;22.47;5.63;;;;;;;;;;4868366;29;20139;-86
2021/12/17 02:03:54;;;;;;;24.92;6.35;;;;;;;;;;4850751;29;20757;-86
2021/12/17 02:06:21;;;;;;;20.38;5.65;;;;;;;;;;4865914;29;20123;-85
2021/12/17 02:08:49;;;;;;;17.88;5.13;;;;;;;;;;4855020;29;20655;-85
2021/12/17 02:19:47;;;;;;;15.93;4.95;;;;;;;;;;4868395;29;20072;-86
2021/12/17 02:30:28;;;;;;;16.23;4.68;;;;;;;;;;4869363;29;20055;-86
2021/12/17 02:32:55;;;;;;;13.70;5.30;;;;;;;;;;4867321;29;20033;-85
2021/12/17 02:35:39;;;;;;;14.35;5.13;;;;;;;;;;4854110;29;20149;-85
2021/12/17 02:38:15;;;;;;;17.35;4.35;;;;;;;;;;4844246;29;20046;-85
2021/12/17 02:46:16;;;;;;;11.15;4.15;;;;;;;;;;4868690;29;20156;-85
2021/12/17 02:48:43;;;;;;;14.13;4.82;;;;;;;;;;4870481;29;20156;-84
2021/12/17 02:51:09;;;;;;;16.33;5.07;;;;;;;;;;4854228;29;20382;-85
2021/12/17 02:53:35;;;;;;;12.38;5.13;;;;;;;;;;4872661;29;20033;-85
2021/12/17 02:56:03;;;;;;;14.80;5.22;;;;;;;;;;4854687;29;20093;-85
2021/12/17 02:58:31;;;;;;;14.65;5.75;;;;;;;;;;4855886;29;20048;-85
2021/12/17 03:00:57;;;;;;;14.63;4.80;;;;;;;;;;4869647;29;20100;-85
2021/12/17 03:03:25;;;;;;;14.68;5.75;;;;;;;;;;4872037;29;20526;-86
2021/12/17 03:05:51;;;;;;;13.80;5.53;;;;;;;;;;4859850;29;20025;-84
2021/12/17 03:08:17;;;;;;;17.73;5.47;;;;;;;;;;4860234;29;20029;-85
2021/12/17 03:10:44;;;;;;;12.75;5.00;;;;;;;;;;4856620;29;20117;-86
2021/12/17 03:13:11;;;;;;;13.77;4.85;;;;;;;;;;4870781;29;20162;-85
2021/12/17 03:15:47;;;;;;;16.55;5.13;;;;;;;;;;4860578;29;20393;-85
2021/12/17 03:23:28;;;;;;;16.25;5.78;;;;;;;;;;4872979;29;20556;-84
2021/12/17 03:25:55;;;;;;;12.65;5.50;;;;;;;;;;4874778;29;20482;-85
2021/12/17 03:28:21;;;;;;;12.00;4.90;;;;;;;;;;4854038;29;20127;-84
2021/12/17 03:30:47;;;;;;;12.95;5.03;;;;;;;;;;4856864;29;20085;-85
2021/12/17 03:33:13;;;;;;;18.10;5.40;;;;;;;;;;4874275;29;20446;-85
2021/12/17 03:35:40;;;;;;;17.63;5.60;;;;;;;;;;4871996;29;20037;-84
2021/12/17 03:38:06;;;;;;;13.73;5.90;;;;;;;;;;4859240;29;20041;-85
2021/12/17 03:40:33;;;;;;;13.05;5.25;;;;;;;;;;4855074;29;20494;-85
2021/12/17 03:43:11;;;;;;;20.77;5.10;;;;;;;;;;4871701;29;20517;-85
2021/12/17 03:45:44;;;;;;;21.20;5.47;;;;;;;;;;4870297;29;20109;-84
2021/12/17 03:48:10;;;;;;;18.20;5.68;;;;;;;;;;4867832;29;20029;-84
2021/12/17 03:50:37;;;;;;;17.52;5.13;;;;;;;;;;4856034;29;20037;-85
2021/12/17 03:53:06;;;;;;;15.88;5.25;;;;;;;;;;4873844;29;20431;-85
2021/12/17 03:55:32;;;;;;;19.38;5.35;;;;;;;;;;4865466;29;20044;-85
2021/12/17 03:57:59;;;;;;;10.88;4.95;;;;;;;;;;4854976;29;20139;-85
2021/12/17 04:00:25;;;;;;;15.43;5.97;;;;;;;;;;4858398;29;20047;-85
2021/12/17 04:02:52;;;;;;;12.98;5.53;;;;;;;;;;4867593;29;20060;-85
2021/12/17 04:05:18;;;;;;;11.13;4.90;;;;;;;;;;4855025;29;20687;-85
2021/12/17 04:07:44;;;;;;;19.88;5.00;;;;;;;;;;4859354;29;20029;-85
2021/12/17 04:10:10;;;;;;;12.93;4.50;;;;;;;;;;4851594;29;20437;-84
2021/12/17 04:15:17;;;;;;;13.07;4.60;;;;;;;;;;4870270;29;20044;-85
2021/12/17 04:17:48;;;;;;;11.55;4.28;;;;;;;;;;4870131;29;20085;-84
2021/12/17 04:20:14;;;;;;;13.35;4.65;;;;;;;;;;4868692;29;20066;-85
2021/12/17 04:22:40;;;;;;;6.85;3.72;;;;;;;;;;4874241;29;20528;-85
2021/12/17 04:25:06;;;;;;;8.02;3.13;;;;;;;;;;4859790;29;20307;-85
2021/12/17 04:27:32;;;;;;;13.57;4.53;;;;;;;;;;4867458;29;20075;-83
2021/12/17 04:29:58;;;;;;;15.77;4.82;;;;;;;;;;4853192;29;20061;-85
2021/12/17 04:32:24;;;;;;;10.77;4.18;;;;;;;;;;4854813;29;20048;-86
2021/12/17 04:34:52;;;;;;;15.55;4.93;;;;;;;;;;4853976;29;20067;-84
2021/12/17 04:37:19;;;;;;;12.43;4.30;;;;;;;;;;4867808;29;20033;-85
2021/12/17 04:39:45;;;;;;;19.42;4.97;;;;;;;;;;4870880;29;20139;-84
2021/12/17 04:42:20;;;;;;;16.90;5.18;;;;;;;;;;4853811;29;20040;-84
2021/12/17 04:44:57;;;;;;;13.00;5.18;;;;;;;;;;4854570;29;20092;-85
2021/12/17 04:58:23;;;;;;;21.00;6.05;;;;;;;;;;4870143;29;20117;-85
2021/12/17 05:00:49;;;;;;;13.27;5.45;;;;;;;;;;4854127;29;20025;-85
2021/12/17 05:03:15;;;;;;;23.33;7.63;;;;;;;;;;4864679;29;20033;-84
2021/12/17 05:05:41;;;;;;;21.88;6.78;;;;;;;;;;4869669;29;20044;-85
2021/12/17 05:08:12;;;;;;;24.27;7.18;;;;;;;;;;4849496;29;20474;-86
2021/12/17 05:18:50;;;;;;;22.73;7.50;;;;;;;;;;4867581;29;20056;-85
2021/12/17 05:21:17;;;;;;;21.77;7.35;;;;;;;;;;4854663;29;20028;-85
2021/12/17 05:23:44;;;;;;;30.45;8.05;;;;;;;;;;4855971;29;20041;-86
2021/12/17 05:26:12;;;;;;;26.92;7.63;;;;;;;;;;4856240;29;20744;-85
2021/12/17 05:28:38;;;;;;;23.45;7.90;;;;;;;;;;4869895;29;20029;-86
2021/12/17 05:31:05;;;;;;;31.63;8.50;;;;;;;;;;4853943;29;20088;-85
2021/12/17 05:33:31;;;;;;;23.55;8.43;;;;;;;;;;4849829;29;20156;-84
2021/12/17 05:35:57;;;;;;;29.95;8.80;;;;;;;;;;4868758;29;20072;-85
2021/12/17 05:38:24;;;;;;;30.90;9.07;;;;;;;;;;4870349;29;20037;-86
2021/12/17 05:40:50;;;;;;;28.58;8.80;;;;;;;;;;4853058;29;20052;-85
2021/12/17 05:43:17;;;;;;;31.60;9.23;;;;;;;;;;4854100;29;20072;-85
2021/12/17 05:48:14;;;;;;;37.53;12.18;;;;;;;;;;4866820;29;20033;-86
2021/12/17 05:50:41;;;;;;;32.25;10.77;;;;;;;;;;4870135;29;20025;-85
2021/12/17 05:53:08;;;;;;;38.45;11.10;;;;;;;;;;4851482;29;20034;-85
2021/12/17 05:55:34;;;;;;;38.55;9.68;;;;;;;;;;4868995;29;20482;-84
2021/12/17 05:58:00;;;;;;;40.65;9.82;;;;;;;;;;4863604;29;20498;-84
2021/12/17 06:00:30;;;;;;;42.03;9.70;;;;;;;;;;4870786;29;20520;-84
2021/12/17 06:02:57;;;;;;;32.00;10.68;;;;;;;;;;4852477;29;20089;-84
2021/12/17 06:05:23;;;;;;;31.90;9.80;;;;;;;;;;4851996;29;20069;-85
2021/12/17 06:07:49;;;;;;;33.20;10.57;;;;;;;;;;4850270;29;20034;-85
2021/12/17 06:10:15;;;;;;;34.40;10.65;;;;;;;;;;4867524;29;20048;-85
2021/12/17 06:12:41;;;;;;;31.73;10.35;;;;;;;;;;4855605;29;20584;-86
2021/12/17 06:15:09;;;;;;;34.13;10.20;;;;;;;;;;4870225;29;20069;-85
2021/12/17 06:17:35;;;;;;;46.67;11.23;;;;;;;;;;4869480;29;20482;-84
2021/12/17 06:20:01;;;;;;;36.65;10.00;;;;;;;;;;4851853;29;20430;-85
2021/12/17 06:22:27;;;;;;;39.97;13.38;;;;;;;;;;4852128;29;20044;-85
2021/12/17 06:24:53;;;;;;;44.05;14.65;;;;;;;;;;4853736;29;20052;-85
2021/12/17 06:27:23;;;;;;;49.97;11.35;;;;;;;;;;4870660;29;20121;-84
2021/12/17 06:29:49;;;;;;;37.53;10.15;;;;;;;;;;4857787;29;20089;-85
2021/12/17 06:32:15;;;;;;;41.75;10.13;;;;;;;;;;4874232;29;20465;-84
2021/12/17 06:34:41;;;;;;;31.38;10.18;;;;;;;;;;4852218;29;20107;-85
2021/12/17 06:37:07;;;;;;;31.30;8.55;;;;;;;;;;4854612;29;20140;-85
2021/12/17 06:39:34;;;;;;;37.60;11.35;;;;;;;;;;4856329;29;20157;-85
2021/12/17 06:42:00;;;;;;;24.75;8.13;;;;;;;;;;4855179;29;20057;-85
2021/12/17 06:44:26;;;;;;;41.15;11.13;;;;;;;;;;4872753;29;20410;-85
2021/12/17 06:49:27;;;;;;;35.33;9.32;;;;;;;;;;4866369;29;20565;-85
2021/12/17 07:00:12;;;;;;;32.97;9.90;;;;;;;;;;4872863;29;20062;-86
2021/12/17 07:10:49;;;;;;;51.60;11.18;;;;;;;;;;4872133;29;20041;-85
2021/12/17 07:34:46;;;;;;;43.90;11.15;;;;;;;;;;4871523;29;20047;-86
2021/12/17 07:39:39;;;;;;;39.38;11.23;;;;;;;;;;4872272;29;20037;-84
2021/12/17 07:42:05;;;;;;;41.17;12.05;;;;;;;;;;4872220;29;20817;-85
2021/12/17 07:44:31;;;;;;;47.03;11.90;;;;;;;;;;4855604;29;20041;-85
2021/12/17 07:46:57;;;;;;;34.35;9.77;;;;;;;;;;4855196;29;20037;-86
2021/12/17 07:49:23;;;;;;;44.70;11.68;;;;;;;;;;4851321;29;20045;-85
2021/12/17 07:51:50;;;;;;;37.78;11.45;;;;;;;;;;4864423;29;20041;-85
2021/12/17 07:54:16;;;;;;;47.90;11.13;;;;;;;;;;4869521;29;20224;-85
2021/12/17 07:56:45;;;;;;;45.08;10.85;;;;;;;;;;4871416;29;20039;-86
2021/12/17 07:59:13;;;;;;;57.35;12.60;;;;;;;;;;4870594;29;20899;-86
2021/12/17 08:01:39;;;;;;;43.10;12.45;;;;;;;;;;4869253;29;20060;-85
2021/12/17 08:04:06;;;;;;;42.17;12.05;;;;;;;;;;4868805;29;20585;-85
2021/12/17 08:06:32;;;;;;;47.45;11.10;;;;;;;;;;4871136;29;20124;-85
2021/12/17 08:08:59;;;;;;;35.15;10.40;;;;;;;;;;4855854;29;20029;-85
2021/12/17 08:11:25;;;;;;;40.00;11.00;;;;;;;;;;4854327;29;20060;-86
2021/12/17 08:13:57;;;;;;;50.30;12.15;;;;;;;;;;4871078;29;20054;-86
2021/12/17 08:32:06;;;;;;;41.17;11.38;;;;;;;;;;4870916;29;20045;-85
2021/12/17 08:34:32;;;;;;;38.50;11.45;;;;;;;;;;4859257;29;20041;-86
2021/12/17 08:36:58;;;;;;;37.67;10.65;;;;;;;;;;4855798;29;20054;-85
2021/12/17 08:39:25;;;;;;;43.97;10.82;;;;;;;;;;4872063;29;20528;-85
2021/12/17 08:41:54;;;;;;;38.97;10.27;;;;;;;;;;4854240;29;20418;-84
2021/12/17 08:44:20;;;;;;;48.90;11.73;;;;;;;;;;4872475;29;20143;-86
2021/12/17 08:46:46;;;;;;;43.25;11.57;;;;;;;;;;4869513;29;20036;-86
2021/12/17 08:49:13;;;;;;;50.50;11.90;;;;;;;;;;4855690;29;20073;-86
2021/12/17 08:51:39;;;;;;;51.35;11.57;;;;;;;;;;4853799;29;20084;-86
2021/12/17 08:54:05;;;;;;;35.05;11.35;;;;;;;;;;4870879;29;20080;-85
2021/12/17 08:56:33;;;;;;;39.38;11.70;;;;;;;;;;4855310;29;20060;-86
2021/12/17 08:59:01;;;;;;;47.72;10.95;;;;;;;;;;4870900;29;20112;-85
2021/12/17 09:01:27;;;;;;;47.40;11.57;;;;;;;;;;4855995;29;20059;-84
2021/12/17 09:03:53;;;;;;;40.75;12.60;;;;;;;;;;4855672;29;20072;-84
2021/12/17 09:06:24;;;;;;;41.58;11.02;;;;;;;;;;4854980;29;20061;-85
2021/12/17 09:08:54;;;;;;;46.50;11.63;;;;;;;;;;4853252;29;20033;-85
2021/12/17 09:11:21;;;;;;;46.25;11.02;;;;;;;;;;4854107;29;20853;-86
2021/12/17 09:13:47;;;;;;;42.95;11.35;;;;;;;;;;4853883;29;20037;-86
2021/12/17 09:16:13;;;;;;;39.28;11.02;;;;;;;;;;4874939;29;20501;-85
2021/12/17 09:18:40;;;;;;;49.00;11.30;;;;;;;;;;4866057;29;20316;-86
2021/12/17 09:21:06;;;;;;;40.78;9.65;;;;;;;;;;4852178;29;20037;-86
2021/12/17 09:23:32;;;;;;;34.00;11.73;;;;;;;;;;4870111;29;20516;-85
2021/12/17 09:25:58;;;;;;;44.47;10.23;;;;;;;;;;4870203;29;20092;-85
2021/12/17 09:28:31;;;;;;;33.45;10.25;;;;;;;;;;4855836;29;20048;-85
2021/12/17 09:30:58;;;;;;;38.90;9.85;;;;;;;;;;4871450;29;20442;-86
2021/12/17 09:33:25;;;;;;;35.55;10.82;;;;;;;;;;4868107;29;20497;-85
2021/12/17 09:35:51;;;;;;;30.80;10.00;;;;;;;;;;4847606;29;20025;-86
2021/12/17 09:38:17;;;;;;;33.90;9.95;;;;;;;;;;4870481;29;20545;-86
2021/12/17 09:40:44;;;;;;;36.83;10.73;;;;;;;;;;4870907;29;20500;-85
2021/12/17 09:43:10;;;;;;;46.72;10.40;;;;;;;;;;4850937;29;20029;-85
2021/12/17 09:45:37;;;;;;;28.58;7.97;;;;;;;;;;4845263;29;20108;-86
2021/12/17 09:48:03;;;;;;;38.58;9.15;;;;;;;;;;4833173;29;20033;-86
2021/12/17 09:50:30;;;;;;;28.67;9.07;;;;;;;;;;4839936;29;20066;-85
2021/12/17 09:52:56;;;;;;;34.92;10.15;;;;;;;;;;4837649;29;20045;-85
2021/12/17 09:55:22;;;;;;;44.35;8.50;;;;;;;;;;4838567;29;20030;-84
2021/12/17 09:57:48;;;;;;;30.67;9.00;;;;;;;;;;4860976;29;20621;-85
2021/12/17 10:00:16;;;;;;;34.22;9.25;;;;;;;;;;4848882;29;20081;-86
2021/12/17 10:02:46;;;;;;;30.80;9.02;;;;;;;;;;4850059;29;20038;-85
2021/12/17 10:05:13;;;;;;;37.30;9.20;;;;;;;;;;4847985;29;20100;-85
2021/12/17 10:07:41;;;;;;;26.60;9.75;;;;;;;;;;4832392;29;20551;-84
2021/12/17 10:10:07;;;;;;;36.10;9.00;;;;;;;;;;4851716;29;20030;-85
2021/12/17 10:12:35;;;;;;;27.85;8.82;;;;;;;;;;4840320;29;20128;-85
2021/12/17 10:15:05;;;;;;;26.15;7.93;;;;;;;;;;4833119;29;20061;-85
2021/12/17 10:17:32;;;;;;;29.70;8.15;;;;;;;;;;4846939;29;20516;-86
2021/12/17 10:19:58;;;;;;;28.90;8.65;;;;;;;;;;4850665;29;20133;-86
2021/12/17 10:22:29;;;;;;;26.83;7.93;;;;;;;;;;4851275;29;20066;-86
2021/12/17 10:24:58;;;;;;;21.85;7.75;;;;;;;;;;4848399;29;20837;-84
2021/12/17 10:27:26;;;;;;;25.13;7.90;;;;;;;;;;4848242;29;20041;-84
2021/12/17 10:29:53;;;;;;;25.63;7.43;;;;;;;;;;4836359;29;20033;-84
2021/12/17 10:32:20;;;;;;;24.10;7.90;;;;;;;;;;4847748;29;20101;-84
2021/12/17 10:35:01;;;;;;;27.27;7.60;;;;;;;;;;4849138;29;20045;-85
2021/12/17 10:37:33;;;;;;;21.48;6.75;;;;;;;;;;4850023;29;20435;-86
2021/12/17 10:39:59;;;;;;;18.23;7.18;;;;;;;;;;4843291;29;20064;-86
2021/12/17 10:42:35;;;;;;;20.90;7.13;;;;;;;;;;4835033;29;20152;-86
2021/12/17 10:45:23;;;;;;;24.08;6.32;;;;;;;;;;4860577;29;20048;-85
2021/12/17 10:48:01;;;;;;;16.90;6.50;;;;;;;;;;4868577;29;20028;-86
2021/12/17 10:50:28;;;;;;;16.85;6.60;;;;;;;;;;4855279;29;20033;-84
2021/12/17 10:52:55;;;;;;;13.02;5.53;;;;;;;;;;4869722;29;20096;-86
2021/12/17 10:55:23;;;;;;;13.60;5.75;;;;;;;;;;4870229;29;20116;-86
2021/12/17 10:57:49;;;;;;;24.98;6.45;;;;;;;;;;4869706;29;20073;-85
2021/12/17 11:00:20;;;;;;;20.60;6.28;;;;;;;;;;4853656;29;20037;-85
2021/12/17 11:02:50;;;;;;;18.83;6.00;;;;;;;;;;4852626;29;20029;-85
2021/12/17 11:05:17;;;;;;;11.77;4.72;;;;;;;;;;4867778;29;20045;-85
2021/12/17 11:07:47;;;;;;;13.73;5.28;;;;;;;;;;4868178;29;20031;-85
2021/12/17 11:10:14;;;;;;;12.93;4.88;;;;;;;;;;4851282;29;20079;-86
2021/12/17 11:12:41;;;;;;;12.23;5.05;;;;;;;;;;4855556;29;20033;-85
2021/12/17 11:15:24;;;;;;;9.40;4.55;;;;;;;;;;4853874;29;20537;-85
2021/12/17 11:17:50;;;;;;;9.65;3.97;;;;;;;;;;4871829;29;20036;-86
2021/12/17 11:20:29;;;;;;;10.55;4.68;;;;;;;;;;4873292;29;20174;-86
2021/12/17 11:22:57;;;;;;;12.02;4.47;;;;;;;;;;4858430;29;20045;-85
2021/12/17 11:25:24;;;;;;;12.95;4.10;;;;;;;;;;4873534;29;20025;-84
2021/12/17 11:27:51;;;;;;;6.50;3.67;;;;;;;;;;4856481;29;20039;-86
2021/12/17 11:30:19;;;;;;;8.57;3.53;;;;;;;;;;4854981;29;20045;-85
2021/12/17 11:32:46;;;;;;;11.35;4.20;;;;;;;;;;4870020;29;20065;-85
2021/12/17 11:35:13;;;;;;;11.45;4.50;;;;;;;;;;4866313;29;20044;-86
2021/12/17 11:37:42;;;;;;;7.68;4.03;;;;;;;;;;4855729;29;20032;-85
2021/12/17 11:40:12;;;;;;;10.48;3.88;;;;;;;;;;4859260;29;20373;-85
2021/12/17 11:43:15;;;;;;;14.80;3.95;;;;;;;;;;4871651;29;20088;-86
2021/12/17 11:45:42;;;;;;;4.90;2.97;;;;;;;;;;4792818;29;20492;-85
2021/12/17 11:48:22;;;;;;;5.97;3.00;;;;;;;;;;4842965;29;20037;-85
2021/12/17 11:51:02;;;;;;;10.77;3.53;;;;;;;;;;4858611;29;20037;-86
2021/12/17 11:53:28;;;;;;;6.43;3.53;;;;;;;;;;4871477;29;20029;-85
2021/12/17 11:55:56;;;;;;;8.20;3.40;;;;;;;;;;4868988;29;20489;-85
2021/12/17 11:58:41;;;;;;;6.85;3.30;;;;;;;;;;4869123;29;20152;-85
2021/12/17 12:01:07;;;;;;;7.28;3.22;;;;;;;;;;4853592;29;20132;-85
2021/12/17 12:03:33;;;;;;;8.00;3.10;;;;;;;;;;4870742;29;20037;-84
2021/12/17 12:06:00;;;;;;;6.97;2.80;;;;;;;;;;4870727;29;20033;-85
2021/12/17 12:08:45;;;;;;;12.88;3.30;;;;;;;;;;4860711;29;20040;-86
2021/12/17 12:11:18;;;;;;;6.75;2.80;;;;;;;;;;4868200;29;20085;-86
2021/12/17 12:13:46;;;;;;;10.68;3.50;;;;;;;;;;4855769;29;20040;-84
2021/12/17 12:16:16;;;;;;;15.30;3.35;;;;;;;;;;4857421;29;20912;-86
2021/12/17 12:18:50;;;;;;;14.00;3.35;;;;;;;;;;4856643;29;20065;-84
2021/12/17 12:21:20;;;;;;;11.23;3.20;;;;;;;;;;4868798;29;20030;-85
2021/12/17 12:23:51;;;;;;;6.88;3.35;;;;;;;;;;4851696;29;20119;-86
2021/12/17 12:26:21;;;;;;;8.57;3.17;;;;;;;;;;4856145;29;20029;-85
2021/12/17 12:28:47;;;;;;;10.48;3.85;;;;;;;;;;4871126;29;20033;-86
2021/12/17 12:31:14;;;;;;;7.53;4.00;;;;;;;;;;4870333;29;20044;-85
2021/12/17 12:33:59;;;;;;;6.65;3.25;;;;;;;;;;4856384;29;20624;-84
2021/12/17 12:36:44;;;;;;;8.70;4.28;;;;;;;;;;4864184;29;20601;-85
2021/12/17 12:39:16;;;;;;;8.57;4.18;;;;;;;;;;4854281;29;20033;-86
2021/12/17 12:41:46;;;;;;;12.15;3.63;;;;;;;;;;4853363;29;20037;-85
2021/12/17 12:44:12;;;;;;;9.30;4.18;;;;;;;;;;4855303;29;20045;-85
2021/12/17 12:46:49;;;;;;;6.50;3.55;;;;;;;;;;4858639;29;20042;-85
2021/12/17 12:49:34;;;;;;;10.00;4.07;;;;;;;;;;4848067;29;20029;-86
2021/12/17 12:52:26;;;;;;;15.77;5.25;;;;;;;;;;4852894;29;20048;-85
2021/12/17 12:54:53;;;;;;;9.32;4.43;;;;;;;;;;4847045;29;20526;-84
2021/12/17 12:57:39;;;;;;;11.50;4.47;;;;;;;;;;4838123;29;20089;-85
2021/12/17 13:00:08;;;;;;;11.40;5.00;;;;;;;;;;4831340;29;20038;-85
2021/12/17 13:02:35;;;;;;;10.45;4.28;;;;;;;;;;4848346;29;20045;-86
2021/12/17 13:05:01;;;;;;;14.13;4.95;;;;;;;;;;4850200;29;20391;-86
2021/12/17 13:07:35;;;;;;;14.27;4.47;;;;;;;;;;4850677;29;20090;-86
2021/12/17 13:10:07;;;;;;;12.05;4.25;;;;;;;;;;4836081;29;20487;-86
2021/12/17 13:12:35;;;;;;;10.95;4.70;;;;;;;;;;4836432;29;20036;-86
2021/12/17 13:15:16;;;;;;;9.57;4.53;;;;;;;;;;4846676;29;20565;-86
2021/12/17 13:20:16;;;;;;;10.20;4.28;;;;;;;;;;4853320;29;20529;-85
2021/12/17 13:20:56;;;;;;;9.00;4.63;;;;;;;;;;4848163;29;20117;-86
2021/12/17 13:23:23;;;;;;;8.40;4.45;;;;;;;;;;4850148;29;20042;-86
2021/12/17 13:26:08;;;;;;;13.30;4.43;;;;;;;;;;4835037;29;20483;-85
2021/12/17 13:28:46;;;;;;;7.22;3.92;;;;;;;;;;4835046;29;20084;-85
2021/12/17 13:31:12;;;;;;;10.73;4.53;;;;;;;;;;4828862;29;20061;-85
2021/12/17 13:33:38;;;;;;;10.70;4.90;;;;;;;;;;4850955;29;20068;-86
2021/12/17 13:36:12;;;;;;;9.18;4.63;;;;;;;;;;4838533;29;20128;-86
2021/12/17 13:38:41;;;;;;;12.68;4.68;;;;;;;;;;4836790;29;20025;-86
2021/12/17 13:41:10;;;;;;;11.35;4.55;;;;;;;;;;4848787;29;20069;-86
2021/12/17 13:43:39;;;;;;;7.50;4.50;;;;;;;;;;4835616;29;20041;-86
2021/12/17 13:46:05;;;;;;;11.75;4.75;;;;;;;;;;4860237;29;20060;-86
2021/12/17 13:48:32;;;;;;;14.23;5.35;;;;;;;;;;4853313;29;20032;-85
2021/12/17 13:50:58;;;;;;;7.70;4.72;;;;;;;;;;4848950;29;20493;-86
2021/12/17 13:53:24;;;;;;;8.93;4.38;;;;;;;;;;4855466;29;20446;-86
2021/12/17 13:55:51;;;;;;;8.13;4.45;;;;;;;;;;4870175;29;20021;-85
2021/12/17 13:58:22;;;;;;;10.93;4.15;;;;;;;;;;4850862;29;20116;-86
2021/12/17 14:00:53;;;;;;;8.35;4.13;;;;;;;;;;4852169;29;20470;-85
2021/12/17 14:03:21;;;;;;;9.55;4.53;;;;;;;;;;4865080;29;20398;-85
2021/12/17 14:05:51;;;;;;;11.20;3.97;;;;;;;;;;4851839;29;20061;-85
2021/12/17 14:08:21;;;;;;;8.65;4.18;;;;;;;;;;4857124;29;20068;-85
2021/12/17 14:10:48;;;;;;;8.02;4.22;;;;;;;;;;4852658;29;20060;-85
2021/12/17 14:13:25;;;;;;;12.93;5.32;;;;;;;;;;4866076;29;20033;-85
2021/12/17 14:15:52;;;;;;;8.95;4.63;;;;;;;;;;4871681;29;20066;-85
2021/12/17 14:18:20;;;;;;;9.88;4.75;;;;;;;;;;4868481;29;20064;-85
2021/12/17 14:20:53;;;;;;;9.45;4.82;;;;;;;;;;4874207;29;20092;-85
2021/12/17 14:23:21;;;;;;;11.55;5.00;;;;;;;;;;4854581;29;20497;-85
2021/12/17 14:25:51;;;;;;;8.48;4.65;;;;;;;;;;4858156;29;20052;-84
2021/12/17 14:28:25;;;;;;;12.65;5.15;;;;;;;;;;4866059;29;20040;-84
2021/12/17 14:31:12;;;;;;;12.13;5.55;;;;;;;;;;4853474;29;20128;-85
2021/12/17 14:33:41;;;;;;;8.60;4.53;;;;;;;;;;4869023;29;20037;-85
2021/12/17 14:36:09;;;;;;;9.18;4.90;;;;;;;;;;4868389;29;20040;-85
2021/12/17 14:38:45;;;;;;;13.13;5.25;;;;;;;;;;4869328;29;20767;-85
2021/12/17 14:41:13;;;;;;;13.93;5.10;;;;;;;;;;4856269;29;20605;-85
2021/12/17 14:43:43;;;;;;;10.90;5.57;;;;;;;;;;4852767;29;20029;-85
2021/12/17 14:49:09;;;;;;;11.52;6.03;;;;;;;;;;4872666;29;20033;-85
2021/12/17 14:57:22;;;;;;;12.73;6.00;;;;;;;;;;4872654;29;20044;-86
2021/12/17 15:02:50;;;;;;;9.48;5.10;;;;;;;;;;4869387;29;21714;-86
2021/12/17 15:05:18;;;;;;;11.93;4.93;;;;;;;;;;4854784;29;20033;-85
2021/12/17 15:07:45;;;;;;;12.52;5.45;;;;;;;;;;4857483;29;20460;-85
2021/12/17 15:10:12;;;;;;;16.80;5.38;;;;;;;;;;4869929;29;20475;-84
2021/12/17 15:12:38;;;;;;;10.65;5.55;;;;;;;;;;4852669;29;20038;-85
2021/12/17 15:15:19;;;;;;;8.82;5.30;;;;;;;;;;4875401;29;20032;-84
2021/12/17 15:17:45;;;;;;;12.05;5.28;;;;;;;;;;4873403;29;20033;-85
2021/12/17 15:20:12;;;;;;;9.38;5.22;;;;;;;;;;4866125;29;20124;-86
2021/12/17 15:22:38;;;;;;;14.23;5.50;;;;;;;;;;4872744;29;20033;-86
2021/12/17 15:25:05;;;;;;;9.13;4.90;;;;;;;;;;4871160;29;20066;-86
2021/12/17 15:27:33;;;;;;;14.95;5.63;;;;;;;;;;4855294;29;20037;-85
2021/12/17 15:30:00;;;;;;;10.77;5.32;;;;;;;;;;4852202;29;20025;-86
2021/12/17 15:32:27;;;;;;;12.27;6.13;;;;;;;;;;4855631;29;20513;-85
2021/12/17 15:34:54;;;;;;;15.65;6.60;;;;;;;;;;4856873;29;20040;-85
2021/12/17 15:37:20;;;;;;;12.30;6.07;;;;;;;;;;4868772;29;20025;-85
2021/12/17 15:39:46;;;;;;;15.18;6.70;;;;;;;;;;4867213;29;20826;-85
2021/12/17 15:42:12;;;;;;;14.55;6.60;;;;;;;;;;4858934;29;20025;-85
2021/12/17 15:44:38;;;;;;;20.63;7.53;;;;;;;;;;4855267;29;20045;-85
2021/12/17 15:47:10;;;;;;;14.60;6.50;;;;;;;;;;4872330;29;20056;-84
2021/12/17 15:49:39;;;;;;;17.25;6.78;;;;;;;;;;4857622;29;20036;-85
2021/12/17 15:52:07;;;;;;;16.75;7.07;;;;;;;;;;4869708;29;20085;-84
2021/12/17 15:54:33;;;;;;;15.77;7.20;;;;;;;;;;4857314;29;20047;-86
2021/12/17 15:56:59;;;;;;;23.15;6.72;;;;;;;;;;4870138;29;20025;-85
2021/12/17 15:59:25;;;;;;;25.73;7.28;;;;;;;;;;4853856;29;20037;-85
2021/12/17 16:01:52;;;;;;;25.30;6.97;;;;;;;;;;4857773;29;20037;-85
2021/12/17 16:04:18;;;;;;;23.48;7.00;;;;;;;;;;4853144;29;20513;-86
2021/12/17 16:06:44;;;;;;;20.17;6.95;;;;;;;;;;4856027;29;20025;-85
2021/12/17 16:09:29;;;;;;;20.85;7.32;;;;;;;;;;4853604;29;20089;-85
2021/12/17 16:22:41;;;;;;;19.85;5.10;;;;;;;;;;4868155;29;20040;-85
2021/12/17 16:25:08;;;;;;;15.98;5.30;;;;;;;;;;4867271;29;20132;-86
2021/12/17 16:27:41;;;;;;;13.15;5.25;;;;;;;;;;4857607;29;20054;-85
2021/12/17 16:30:08;;;;;;;15.20;5.15;;;;;;;;;;4857415;29;20490;-87
2021/12/17 16:32:34;;;;;;;17.17;4.93;;;;;;;;;;4856698;29;21214;-86
2021/12/17 16:35:00;;;;;;;10.65;4.78;;;;;;;;;;4870968;29;20053;-86
2021/12/17 16:37:26;;;;;;;15.60;5.43;;;;;;;;;;4855535;29;20037;-86
2021/12/17 16:39:52;;;;;;;16.50;5.20;;;;;;;;;;4856620;29;20765;-85
2021/12/17 16:42:18;;;;;;;11.70;4.40;;;;;;;;;;4859207;29;20513;-84
2021/12/17 16:47:44;;;;;;;22.45;5.57;;;;;;;;;;4849830;29;20041;-86
2021/12/17 16:50:10;;;;;;;23.17;8.43;;;;;;;;;;4855452;29;20113;-85
2021/12/17 16:52:36;;;;;;;19.10;7.10;;;;;;;;;;4859247;29;20672;-85
2021/12/17 16:55:04;;;;;;;12.57;5.45;;;;;;;;;;4853613;29;20037;-88
2021/12/17 16:57:30;;;;;;;7.45;3.70;;;;;;;;;;4873104;29;20404;-85
2021/12/17 16:59:56;;;;;;;10.88;4.15;;;;;;;;;;4872674;29;20042;-85
2021/12/17 17:02:22;;;;;;;7.18;3.72;;;;;;;;;;4870909;29;20741;-86
2021/12/17 17:04:48;;;;;;;7.35;3.88;;;;;;;;;;4856777;29;20044;-85
2021/12/17 17:07:15;;;;;;;9.23;3.20;;;;;;;;;;4854911;29;20029;-87
2021/12/17 17:09:41;;;;;;;11.00;3.42;;;;;;;;;;4858126;29;20092;-86
2021/12/17 17:12:10;;;;;;;11.15;3.25;;;;;;;;;;4856216;29;20033;-84
2021/12/17 17:14:37;;;;;;;11.60;3.42;;;;;;;;;;4858970;29;20482;-85
2021/12/17 17:17:05;;;;;;;7.63;3.10;;;;;;;;;;4870077;29;20032;-86
2021/12/17 17:19:31;;;;;;;13.15;2.72;;;;;;;;;;4853447;29;20707;-86
2021/12/17 17:21:57;;;;;;;6.82;3.20;;;;;;;;;;4870941;29;20097;-85
2021/12/17 17:24:24;;;;;;;9.52;2.78;;;;;;;;;;4851198;29;20041;-85
2021/12/17 17:26:50;;;;;;;5.63;2.58;;;;;;;;;;4853269;29;20033;-84
2021/12/17 17:29:17;;;;;;;8.68;2.50;;;;;;;;;;4874421;29;20041;-86
2021/12/17 17:31:43;;;;;;;4.55;2.22;;;;;;;;;;4851535;29;20045;-85
2021/12/17 17:34:10;;;;;;;5.22;2.13;;;;;;;;;;4865571;29;20025;-85
2021/12/17 17:36:38;;;;;;;4.90;2.22;;;;;;;;;;4851201;29;20033;-85
2021/12/17 17:39:05;;;;;;;4.60;2.40;;;;;;;;;;4851178;29;20059;-86
2021/12/17 17:41:31;;;;;;;4.78;2.53;;;;;;;;;;4867613;29;20104;-84
2021/12/17 17:43:57;;;;;;;8.07;3.30;;;;;;;;;;4849914;29;20065;-85
2021/12/17 17:46:25;;;;;;;7.05;2.75;;;;;;;;;;4853410;29;20155;-85
2021/12/17 17:48:51;;;;;;;11.93;3.58;;;;;;;;;;4870280;29;20029;-83
2021/12/17 17:51:18;;;;;;;10.95;4.85;;;;;;;;;;4849475;29;20439;-86
2021/12/17 17:53:44;;;;;;;17.05;4.50;;;;;;;;;;4851217;29;20462;-86
2021/12/17 17:56:10;;;;;;;10.32;4.20;;;;;;;;;;4869634;29;20546;-86
2021/12/17 17:58:36;;;;;;;15.50;5.00;;;;;;;;;;4870631;29;20052;-86